createdAt,value
2023-03-24T00:01:19.032Z,100153.13
2023-03-24T00:03:48.761Z,100148.41
2023-03-24T00:06:19.065Z,100137.16
2023-03-24T00:08:48.671Z,100144.13
2023-03-24T00:11:18.785Z,100141.66
2023-03-24T00:13:50.376Z,100130.13
2023-03-24T00:16:19.804Z,100131.47
2023-03-24T00:18:50.459Z,100141.13
2023-03-24T00:21:18.447Z,100134.00
2023-03-24T00:23:47.751Z,100122.59
2023-03-24T00:26:18.301Z,100115.34
2023-03-24T00:28:49.292Z,100119.19
2023-03-24T00:31:18.585Z,100111.06
2023-03-24T00:33:50.541Z,100118.50
2023-03-24T00:36:20.629Z,100104.25
2023-03-24T00:38:50.137Z,100108.44
2023-03-24T00:41:20.351Z,100107.41
2023-03-24T00:43:49.134Z,100106.88
2023-03-24T00:46:27.852Z,100104.16
2023-03-24T00:49:02.094Z,100089.22
2023-03-24T00:51:31.934Z,100100.03
2023-03-24T00:53:59.969Z,100088.81
2023-03-24T00:56:31.293Z,100092.53
2023-03-24T00:59:02.403Z,100092.53
2023-03-24T01:01:35.400Z,100088.81
2023-03-24T01:04:06.047Z,100087.41
2023-03-24T01:06:36.681Z,100083.00
2023-03-24T01:09:06.221Z,100088.56
2023-03-24T01:11:41.304Z,100090.25
2023-03-24T01:14:09.948Z,100086.72
2023-03-24T01:16:38.521Z,100086.00
2023-03-24T01:19:09.192Z,100088.69
2023-03-24T01:21:37.976Z,100082.88
2023-03-24T01:24:06.902Z,100085.88
2023-03-24T01:26:36.321Z,100070.38
2023-03-24T01:29:04.494Z,100078.34
2023-03-24T01:31:32.494Z,100064.22
2023-03-24T01:34:00.473Z,100066.13
2023-03-24T01:36:28.425Z,100071.66
2023-03-24T01:38:58.484Z,100059.28
2023-03-24T01:41:28.361Z,100057.59
2023-03-24T01:43:57.728Z,100058.41
2023-03-24T01:46:26.645Z,100056.16
2023-03-24T01:48:56.395Z,100048.75
2023-03-24T01:51:26.557Z,100051.75
2023-03-24T01:53:57.502Z,100060.72
2023-03-24T01:56:26.263Z,100058.47
2023-03-24T01:58:59.236Z,100055.78
2023-03-24T02:01:29.881Z,100054.22
2023-03-24T02:03:59.054Z,100053.53
2023-03-24T02:06:27.274Z,100038.97
2023-03-24T02:08:56.805Z,100035.44
2023-03-24T02:11:27.029Z,100043.38
2023-03-24T02:13:55.259Z,100042.41
2023-03-24T02:16:39.486Z,100040.53
2023-03-24T02:19:39.133Z,100025.31
2023-03-24T02:22:42.903Z,100027.56
2023-03-24T02:25:30.254Z,100023.13
2023-03-24T02:28:13.060Z,100022.44
2023-03-24T02:30:59.455Z,100012.31
2023-03-24T02:33:53.100Z,100016.88
2023-03-24T02:36:50.680Z,100016.03
2023-03-24T02:39:40.799Z,100008.59
2023-03-24T02:42:16.102Z,100001.34
2023-03-24T02:44:49.957Z,100007.44
2023-03-24T02:47:21.535Z,100001.47
2023-03-24T02:49:57.017Z,100004.75
2023-03-24T02:52:30.005Z,100007.44
2023-03-24T02:55:02.443Z,100002.44
2023-03-24T02:57:33.840Z,99995.28
2023-03-24T03:00:07.774Z,99987.44
2023-03-24T03:02:37.270Z,99985.91
2023-03-24T03:05:09.547Z,99979.94
2023-03-24T03:07:38.540Z,99974.69
2023-03-24T03:10:14.305Z,99968.41
2023-03-24T03:12:43.039Z,99967.41
2023-03-24T03:15:13.803Z,99966.38
2023-03-24T03:17:44.510Z,99966.38
2023-03-24T03:20:16.391Z,99972.53
2023-03-24T03:22:49.818Z,99956.69
2023-03-24T03:25:22.833Z,99955.66
2023-03-24T03:27:53.095Z,99957.06
2023-03-24T03:30:24.855Z,99945.69
2023-03-24T03:32:57.312Z,99940.81
2023-03-24T03:35:28.051Z,99944.22
2023-03-24T03:38:01.059Z,99933.41
2023-03-24T03:40:34.130Z,99932.78
2023-03-24T03:43:02.202Z,99947.72
2023-03-24T03:45:30.135Z,99948.09
2023-03-24T03:47:58.154Z,99944.41
2023-03-24T03:50:26.626Z,99936.47
2023-03-24T03:52:54.998Z,99937.19
2023-03-24T03:55:23.320Z,99931.00
2023-03-24T03:57:52.831Z,99920.88
2023-03-24T04:00:24.769Z,99921.00
2023-03-24T04:03:08.666Z,99909.84
2023-03-24T04:05:37.732Z,99917.97
2023-03-24T04:08:15.241Z,99910.88
2023-03-24T04:10:55.985Z,99912.25
2023-03-24T04:13:28.625Z,99917.00
2023-03-24T04:15:59.093Z,99911.19
2023-03-24T04:18:37.248Z,99909.16
2023-03-24T04:21:16.255Z,99914.03
2023-03-24T04:23:50.019Z,99901.22
2023-03-24T04:26:26.319Z,99898.88
2023-03-24T04:29:06.163Z,99911.56
2023-03-24T04:31:37.411Z,99903.59
2023-03-24T04:34:10.247Z,99896.88
2023-03-24T04:36:43.383Z,99903.81
2023-03-24T04:39:13.957Z,99897.56
2023-03-24T04:41:43.074Z,99904.69
2023-03-24T04:44:13.247Z,99907.91
2023-03-24T04:46:41.124Z,99916.03
2023-03-24T04:49:10.432Z,99909.31
2023-03-24T04:51:38.424Z,99902.72
2023-03-24T04:54:06.448Z,99894.06
2023-03-24T04:56:41.479Z,99893.13
2023-03-24T04:59:09.396Z,99901.25
2023-03-24T05:01:39.241Z,99905.81
2023-03-24T05:04:08.461Z,99909.06
2023-03-24T05:06:36.392Z,99897.06
2023-03-24T05:09:05.480Z,99903.84
2023-03-24T05:11:33.377Z,99892.69
2023-03-24T05:14:01.559Z,99910.66
2023-03-24T05:16:29.481Z,99897.94
2023-03-24T05:18:58.872Z,99901.00
2023-03-24T05:21:27.081Z,99892.53
2023-03-24T05:23:55.483Z,99899.66
2023-03-24T05:26:23.355Z,99893.06
2023-03-24T05:28:51.222Z,99894.41
2023-03-24T05:31:19.188Z,99892.13
2023-03-24T05:33:47.154Z,99903.09
2023-03-24T05:36:16.593Z,99890.59
2023-03-24T05:38:44.682Z,99891.25
2023-03-24T05:41:12.773Z,99888.75
2023-03-24T05:43:40.652Z,99878.94
2023-03-24T05:46:09.093Z,99881.31
2023-03-24T05:48:37.076Z,99885.56
2023-03-24T05:51:05.122Z,99883.84
2023-03-24T05:53:34.414Z,99889.47
2023-03-24T05:56:03.117Z,99893.72
2023-03-24T05:58:31.013Z,99897.59
2023-03-24T06:00:59.936Z,99897.09
2023-03-24T06:03:34.208Z,99899.31
2023-03-24T06:06:02.400Z,99887.63
2023-03-24T06:08:34.006Z,99897.28
2023-03-24T06:11:04.137Z,99896.13
2023-03-24T06:13:32.636Z,99896.66
2023-03-24T06:16:03.538Z,99899.06
2023-03-24T06:18:32.095Z,99902.13
2023-03-24T06:21:00.298Z,99895.84
2023-03-24T06:23:29.640Z,99898.88
2023-03-24T06:25:59.089Z,99905.47
2023-03-24T06:28:30.527Z,99910.84
2023-03-24T06:30:59.296Z,99922.97
2023-03-24T06:33:27.380Z,99922.09
2023-03-24T06:35:55.381Z,99915.31
2023-03-24T06:38:23.401Z,99918.66
2023-03-24T06:40:51.457Z,99912.13
2023-03-24T06:43:19.364Z,99930.09
2023-03-24T06:45:48.928Z,99927.53
2023-03-24T06:48:17.030Z,99966.31
2023-03-24T06:50:45.113Z,99989.50
2023-03-24T06:53:13.252Z,99981.47
2023-03-24T06:55:41.157Z,99975.63
2023-03-24T06:58:09.060Z,99980.66
2023-03-24T07:00:38.065Z,99986.03
2023-03-24T07:03:08.077Z,99987.88
2023-03-24T07:05:39.462Z,99993.16
2023-03-24T07:08:34.018Z,99990.59
2023-03-24T07:10:56.060Z,99999.91
2023-03-24T07:13:24.056Z,99990.47
2023-03-24T07:15:52.058Z,99991.78
2023-03-24T07:18:21.621Z,99991.25
2023-03-24T07:20:49.627Z,99981.50
2023-03-24T07:23:17.542Z,99962.22
2023-03-24T07:25:45.857Z,99969.00
2023-03-24T07:28:13.833Z,99951.69
2023-03-24T07:30:41.818Z,99950.53
2023-03-24T07:33:12.054Z,99958.16
2023-03-24T07:35:41.791Z,99946.66
2023-03-24T07:38:10.277Z,99931.56
2023-03-24T07:40:38.233Z,99926.50
2023-03-24T07:43:06.849Z,99929.34
2023-03-24T07:45:35.032Z,99925.09
2023-03-24T07:48:03.252Z,99919.72
2023-03-24T07:50:31.962Z,99911.59
2023-03-24T07:53:01.553Z,99901.13
2023-03-24T07:55:29.478Z,99901.00
2023-03-24T07:57:57.459Z,99892.06
2023-03-24T08:00:25.501Z,99883.28
2023-03-24T08:02:54.454Z,99876.09
2023-03-24T08:05:24.965Z,99867.97
2023-03-24T08:07:54.422Z,99857.28
2023-03-24T08:10:25.323Z,99865.47
2023-03-24T08:12:53.313Z,99855.66
2023-03-24T08:15:21.472Z,99860.53
2023-03-24T08:17:49.704Z,99845.44
2023-03-24T08:20:19.519Z,99839.16
2023-03-24T08:22:50.110Z,99826.09
2023-03-24T08:25:19.685Z,99806.28
2023-03-24T08:27:49.525Z,99805.81
2023-03-24T08:30:19.261Z,99795.34
2023-03-24T08:32:48.744Z,99786.22
2023-03-24T08:35:19.145Z,99789.16
2023-03-24T08:37:47.170Z,99794.88
2023-03-24T08:40:19.320Z,99787.97
2023-03-24T08:42:51.105Z,99788.59
2023-03-24T08:45:21.206Z,99784.41
2023-03-24T08:47:50.566Z,99784.41
2023-03-24T08:50:19.637Z,99771.59
2023-03-24T08:52:48.185Z,99766.59
2023-03-24T08:55:16.555Z,99759.44
2023-03-24T08:57:44.661Z,99746.22
2023-03-24T09:00:15.833Z,99750.13
2023-03-24T09:02:45.137Z,99741.66
2023-03-24T09:05:13.844Z,99753.03
2023-03-24T09:07:41.902Z,99762.81
2023-03-24T09:10:11.635Z,99764.13
2023-03-24T09:12:40.456Z,99781.56
2023-03-24T09:15:11.765Z,99766.25
2023-03-24T09:17:42.950Z,99768.13
2023-03-24T09:20:13.564Z,99767.91
2023-03-24T09:22:43.839Z,99755.56
2023-03-24T09:25:13.724Z,99747.06
2023-03-24T09:27:41.627Z,99746.03
2023-03-24T09:30:10.703Z,99754.66
2023-03-24T09:32:38.797Z,99756.22
2023-03-24T09:35:09.258Z,99767.00
2023-03-24T09:37:38.540Z,99755.81
2023-03-24T09:40:08.026Z,99760.75
2023-03-24T09:42:38.944Z,99775.38
2023-03-24T09:45:13.913Z,99775.97
2023-03-24T09:47:43.642Z,99785.28
2023-03-24T09:50:22.843Z,99780.34
2023-03-24T09:52:54.727Z,99763.91
2023-03-24T09:55:25.291Z,99768.50
2023-03-24T09:57:54.476Z,99764.59
2023-03-24T10:00:24.532Z,99760.00
2023-03-24T10:02:56.133Z,99752.03
2023-03-24T10:05:32.097Z,99749.16
2023-03-24T10:08:01.757Z,99751.53
2023-03-24T10:10:36.586Z,99736.09
2023-03-24T10:13:08.069Z,99729.91
2023-03-24T10:15:41.294Z,99737.41
2023-03-24T10:18:25.396Z,99738.81
2023-03-24T10:20:56.446Z,99744.56
2023-03-24T10:23:29.109Z,99752.91
2023-03-24T10:26:02.029Z,99754.44
2023-03-24T10:28:34.755Z,99741.72
2023-03-24T10:31:06.683Z,99757.16
2023-03-24T10:33:35.021Z,99758.00
2023-03-24T10:36:08.500Z,99753.56
2023-03-24T10:38:36.729Z,99748.56
2023-03-24T10:41:06.101Z,99761.59
2023-03-24T10:43:34.498Z,99759.19
2023-03-24T10:46:03.246Z,99756.25
2023-03-24T10:48:44.408Z,99751.06
2023-03-24T10:51:21.371Z,99766.09
2023-03-24T10:53:50.675Z,99756.34
2023-03-24T10:56:20.033Z,99750.38
2023-03-24T10:58:49.045Z,99745.97
2023-03-24T11:01:27.311Z,99746.25
2023-03-24T11:04:00.710Z,99743.81
2023-03-24T11:06:30.087Z,99748.03
2023-03-24T11:09:11.581Z,99731.97
2023-03-24T11:11:39.516Z,99740.13
2023-03-24T11:14:20.603Z,99745.44
2023-03-24T11:16:48.747Z,99749.25
2023-03-24T11:19:21.830Z,99759.34
2023-03-24T11:21:53.778Z,99763.44
2023-03-24T11:24:22.086Z,99761.34
2023-03-24T11:26:56.816Z,99774.66
2023-03-24T11:29:28.057Z,99768.47
2023-03-24T11:31:58.510Z,99775.69
2023-03-24T11:34:34.492Z,99773.63
2023-03-24T11:37:05.501Z,99785.50
2023-03-24T11:39:35.403Z,99772.66
2023-03-24T11:42:15.684Z,99783.53
2023-03-24T11:44:47.113Z,99776.38
2023-03-24T11:47:19.713Z,99774.81
2023-03-24T11:49:52.510Z,99769.16
2023-03-24T11:52:25.825Z,99778.69
2023-03-24T11:54:54.136Z,99773.97
2023-03-24T11:57:33.739Z,99775.63
2023-03-24T12:00:08.974Z,99791.16
2023-03-24T12:02:48.353Z,99785.81
2023-03-24T12:05:25.546Z,99780.56
2023-03-24T12:08:16.577Z,99783.53
2023-03-24T12:10:54.720Z,99778.72
2023-03-24T12:16:04.835Z,99798.44
2023-03-24T12:18:39.971Z,99799.00
2023-03-24T12:21:14.270Z,99797.91
2023-03-24T12:23:53.131Z,99800.75
2023-03-24T12:26:23.064Z,99802.75
2023-03-24T12:28:59.964Z,99804.72
2023-03-24T12:31:53.940Z,99801.09
2023-03-24T12:34:42.620Z,99811.56
2023-03-24T12:37:16.568Z,99776.72
2023-03-24T12:39:50.573Z,99787.06
2023-03-24T12:42:20.626Z,99795.72
2023-03-24T12:45:05.586Z,99786.31
2023-03-24T12:48:06.100Z,99785.19
2023-03-24T12:50:42.227Z,99790.13
2023-03-24T12:53:41.852Z,99791.03
2023-03-24T12:56:15.534Z,99788.38
2023-03-24T12:58:46.042Z,99795.34
2023-03-24T13:01:21.050Z,99793.66
2023-03-24T13:03:51.501Z,99796.81
2023-03-24T13:06:22.772Z,99802.47
2023-03-24T13:09:00.656Z,99798.97
2023-03-24T13:11:35.321Z,99797.16
2023-03-24T13:14:05.074Z,99785.56
2023-03-24T13:16:35.940Z,99786.09
2023-03-24T13:19:04.130Z,99787.66
2023-03-24T13:21:35.424Z,99785.28
2023-03-24T13:24:08.753Z,99789.41
2023-03-24T13:26:41.139Z,99787.59
2023-03-24T13:29:16.309Z,99799.59
2023-03-24T13:31:46.887Z,99804.06
2023-03-24T13:34:24.190Z,99809.44
2023-03-24T13:36:55.832Z,99801.72
2023-03-24T13:39:25.438Z,99796.94
2023-03-24T13:41:56.811Z,99794.56
2023-03-24T13:44:26.542Z,99792.19
2023-03-24T13:47:15.530Z,99796.78
2023-03-24T13:49:45.985Z,99800.41
2023-03-24T13:52:28.348Z,99799.28
2023-03-24T13:54:59.101Z,99787.91
2023-03-24T13:57:29.272Z,99780.47
2023-03-24T14:00:08.990Z,99781.72
2023-03-24T14:02:47.766Z,99780.88
2023-03-24T14:05:56.500Z,99792.47
2023-03-24T14:08:41.465Z,99773.22
2023-03-24T14:11:26.868Z,99790.28
2023-03-24T14:13:56.178Z,99776.59
2023-03-24T14:16:36.065Z,99774.13
2023-03-24T14:19:27.273Z,99784.38
2023-03-24T14:22:00.472Z,99783.91
2023-03-24T14:24:30.753Z,99783.97
2023-03-24T14:26:58.692Z,99785.94
2023-03-24T14:29:41.751Z,99774.06
2023-03-24T14:32:20.307Z,99777.25
2023-03-24T14:34:54.256Z,99774.59
2023-03-24T14:37:23.098Z,99775.53
2023-03-24T14:39:51.678Z,99779.72
2023-03-24T14:42:56.890Z,99776.91
2023-03-24T14:45:54.238Z,99776.66
2023-03-24T14:48:30.645Z,99790.78
2023-03-24T14:51:02.793Z,99785.47
2023-03-24T14:53:30.817Z,99776.00
2023-03-24T14:55:59.277Z,99783.09
2023-03-24T14:58:32.984Z,99774.09
2023-03-24T15:01:07.597Z,99768.97
2023-03-24T15:03:39.146Z,99775.03
2023-03-24T15:06:17.662Z,99767.41
2023-03-24T15:08:47.071Z,99775.03
2023-03-24T15:11:17.132Z,99777.31
2023-03-24T15:13:46.087Z,99776.31
2023-03-24T15:16:24.154Z,99778.56
2023-03-24T15:19:01.489Z,99767.50
2023-03-24T15:21:34.244Z,99775.31
2023-03-24T15:24:03.100Z,99772.88
2023-03-24T15:26:32.785Z,99775.81
2023-03-24T15:29:02.218Z,99770.91
2023-03-24T15:31:33.940Z,99779.72
2023-03-24T15:34:23.792Z,99771.06
2023-03-24T15:36:54.960Z,99766.03
2023-03-24T15:39:27.010Z,99758.06
2023-03-24T15:41:55.323Z,99763.78
2023-03-24T15:44:26.925Z,99755.31
2023-03-24T15:46:57.822Z,99764.22
2023-03-24T15:49:27.775Z,99756.03
2023-03-24T15:51:59.476Z,99751.63
2023-03-24T15:54:29.501Z,99756.78
2023-03-24T15:57:02.241Z,99754.84
2023-03-24T15:59:36.575Z,99761.31
2023-03-24T16:02:12.499Z,99753.47
2023-03-24T16:04:41.955Z,99758.69
2023-03-24T16:07:29.671Z,99753.69
2023-03-24T16:09:59.294Z,99758.00
2023-03-24T16:12:27.259Z,99758.06
2023-03-24T16:14:55.274Z,99766.84
2023-03-24T16:17:24.593Z,99764.03
2023-03-24T16:19:52.587Z,99761.63
2023-03-24T16:22:20.552Z,99771.59
2023-03-24T16:24:48.536Z,99760.75
2023-03-24T16:27:16.632Z,99771.06
2023-03-24T16:29:44.733Z,99769.34
2023-03-24T16:32:12.630Z,99770.59
2023-03-24T16:34:42.248Z,99776.72
2023-03-24T16:37:10.856Z,99773.72
2023-03-24T16:39:38.845Z,99776.78
2023-03-24T16:42:07.125Z,99777.19
2023-03-24T16:44:35.593Z,99772.97
2023-03-24T16:47:03.513Z,99780.81
2023-03-24T16:49:31.461Z,99773.78
2023-03-24T16:52:00.967Z,99778.63
2023-03-24T16:54:28.986Z,99781.47
2023-03-24T16:56:57.053Z,99787.16
2023-03-24T16:59:27.084Z,99790.22
2023-03-24T17:01:56.216Z,99788.69
2023-03-24T17:04:26.260Z,99793.72
2023-03-24T17:06:54.757Z,99794.16
2023-03-24T17:09:24.548Z,99803.91
2023-03-24T17:11:54.280Z,99796.41
2023-03-24T17:14:22.707Z,99794.00
2023-03-24T17:16:52.920Z,99788.28
2023-03-24T17:19:22.707Z,99793.75
2023-03-24T17:21:52.843Z,99798.50
2023-03-24T17:24:21.064Z,99796.31
2023-03-24T17:26:50.430Z,99804.25
2023-03-24T17:29:18.478Z,99806.16
2023-03-24T17:31:46.424Z,99801.59
2023-03-24T17:36:46.389Z,99815.84
2023-03-24T17:39:16.766Z,99811.25
2023-03-24T17:41:44.874Z,99814.47
2023-03-24T17:44:14.463Z,99809.56
2023-03-24T17:46:42.545Z,99813.63
2023-03-24T17:49:10.695Z,99815.31
2023-03-24T17:51:38.583Z,99816.72
2023-03-24T17:54:06.764Z,99822.06
2023-03-24T17:56:34.682Z,99829.88
2023-03-24T17:59:03.465Z,99836.84
2023-03-24T18:01:35.438Z,99834.19
2023-03-24T18:04:03.705Z,99838.09
2023-03-24T18:06:31.945Z,99848.69
2023-03-24T18:08:59.850Z,99844.38
2023-03-24T18:11:27.951Z,99852.59
2023-03-24T18:13:55.903Z,99867.53
2023-03-24T18:16:25.326Z,99864.25
2023-03-24T18:18:54.662Z,99866.28
2023-03-24T18:21:22.723Z,99864.38
2023-03-24T18:23:51.192Z,99875.50
2023-03-24T18:26:19.107Z,99869.41
2023-03-24T18:28:47.312Z,99877.66
2023-03-24T18:31:18.861Z,99868.50
2023-03-24T18:33:47.287Z,99861.84
2023-03-24T18:36:21.156Z,99864.50
2023-03-24T18:38:49.435Z,99872.38
2023-03-24T18:41:18.739Z,99870.53
2023-03-24T18:43:48.149Z,99873.53
2023-03-24T18:46:17.192Z,99870.00
2023-03-24T18:48:46.628Z,99882.03
2023-03-24T18:51:16.452Z,99875.09
2023-03-24T18:53:44.357Z,99882.75
2023-03-24T18:56:12.427Z,99870.84
2023-03-24T18:58:40.758Z,99876.19
2023-03-24T19:01:11.058Z,99871.56
2023-03-24T19:03:40.964Z,99885.53
2023-03-24T19:06:09.792Z,99895.56
2023-03-24T19:08:41.424Z,99886.56
2023-03-24T19:11:09.943Z,99892.63
2023-03-24T19:13:38.357Z,99901.94
2023-03-24T19:16:09.117Z,99892.00
2023-03-24T19:18:37.691Z,99895.66
2023-03-24T19:21:07.082Z,99894.31
2023-03-24T19:23:35.317Z,99895.88
2023-03-24T19:26:04.940Z,99892.47
2023-03-24T19:28:36.215Z,99896.44
2023-03-24T19:31:09.194Z,99894.25
2023-03-24T19:33:37.888Z,99891.03
2023-03-24T19:36:07.567Z,99891.16
2023-03-24T19:38:36.477Z,99892.25
2023-03-24T19:41:07.921Z,99897.34
2023-03-24T19:43:36.849Z,99887.59
2023-03-24T19:46:06.165Z,99889.38
2023-03-24T19:48:34.701Z,99887.22
2023-03-24T19:51:02.950Z,99897.69
2023-03-24T19:53:31.169Z,99894.03
2023-03-24T19:55:59.811Z,99899.50
2023-03-24T19:58:29.130Z,99900.44
2023-03-24T20:00:57.716Z,99901.03
2023-03-24T20:03:28.924Z,99902.97
2023-03-24T20:05:57.086Z,99904.91
2023-03-24T20:08:26.158Z,99907.16
2023-03-24T20:10:54.175Z,99899.09
2023-03-24T20:13:24.082Z,99899.97
2023-03-24T20:15:53.761Z,99894.28
2023-03-24T20:18:21.955Z,99900.00
2023-03-24T20:20:49.923Z,99899.66
2023-03-24T20:23:18.061Z,99890.44
2023-03-24T20:25:45.999Z,99900.50
2023-03-24T20:28:14.059Z,99897.78
2023-03-24T20:30:45.069Z,99888.38
2023-03-24T20:33:14.504Z,99889.19
2023-03-24T20:35:42.720Z,99889.66
2023-03-24T20:38:10.608Z,99890.44
2023-03-24T20:40:38.555Z,99880.13
2023-03-24T20:43:06.498Z,99885.59
2023-03-24T20:45:34.502Z,99885.00
2023-03-24T20:48:02.547Z,99888.09
2023-03-24T20:50:31.822Z,99889.59
2023-03-24T20:52:59.742Z,99891.69
2023-03-24T20:55:27.928Z,99891.34
2023-03-24T20:57:55.934Z,99890.03
2023-03-24T21:00:24.247Z,99888.47
2023-03-24T21:02:52.461Z,99882.94
2023-03-24T21:05:20.668Z,99873.28
2023-03-24T21:07:50.103Z,99883.38
2023-03-24T21:10:18.184Z,99871.63
2023-03-24T21:12:53.485Z,99874.72
2023-03-24T21:15:22.230Z,99873.59
2023-03-24T21:17:50.241Z,99875.41
2023-03-24T21:20:19.041Z,99873.47
2023-03-24T21:22:53.663Z,99868.81
2023-03-24T21:25:22.555Z,99873.88
2023-03-24T21:27:50.597Z,99864.75
2023-03-24T21:30:19.394Z,99860.84
2023-03-24T21:32:47.741Z,99863.66
2023-03-24T21:35:16.472Z,99865.25
2023-03-24T21:37:45.655Z,99859.56
2023-03-24T21:40:18.165Z,99866.16
2023-03-24T21:42:46.809Z,99863.19
2023-03-24T21:45:16.374Z,99872.13
2023-03-24T21:47:46.120Z,99872.44
2023-03-24T21:50:19.151Z,99874.06
2023-03-24T21:52:47.951Z,99869.31
2023-03-24T21:55:17.596Z,99866.56
2023-03-24T21:57:46.761Z,99864.75
2023-03-24T22:00:16.761Z,99861.72
2023-03-24T22:02:46.374Z,99856.34
2023-03-24T22:05:14.576Z,99850.25
2023-03-24T22:07:42.838Z,99858.63
2023-03-24T22:10:13.473Z,99850.06
2023-03-24T22:12:43.142Z,99849.94
2023-03-24T22:15:12.757Z,99854.53
2023-03-24T22:17:41.011Z,99846.41
2023-03-24T22:20:10.180Z,99834.06
2023-03-24T22:22:38.572Z,99831.09
2023-03-24T22:25:08.216Z,99844.59
2023-03-24T22:27:36.806Z,99855.41
2023-03-24T22:30:07.586Z,99862.03
2023-03-24T22:32:35.755Z,99860.03
2023-03-24T22:35:03.924Z,99854.44
2023-03-24T22:37:32.363Z,99846.41
2023-03-24T22:40:00.334Z,99856.22
2023-03-24T22:42:28.275Z,99870.56
2023-03-24T22:44:56.365Z,99864.19
2023-03-24T22:47:25.728Z,99872.84
2023-03-24T22:49:53.652Z,99864.75
2023-03-24T22:52:21.603Z,99863.63
2023-03-24T22:54:49.489Z,99865.78
2023-03-24T22:57:18.778Z,99863.63
2023-03-24T22:59:46.768Z,99871.44
2023-03-24T23:02:14.761Z,99873.84
2023-03-24T23:04:45.013Z,99877.81
2023-03-24T23:07:12.974Z,99886.06
2023-03-24T23:09:43.096Z,99885.31
2023-03-24T23:12:11.370Z,99892.59
2023-03-24T23:14:39.283Z,99892.44
2023-03-24T23:17:09.496Z,99891.00
2023-03-24T23:19:37.753Z,99887.03
2023-03-24T23:22:08.387Z,99879.78
2023-03-24T23:24:39.338Z,99886.50
2023-03-24T23:27:07.834Z,99879.56
2023-03-24T23:29:35.749Z,99876.03
2023-03-24T23:32:03.719Z,99869.59
2023-03-24T23:34:31.650Z,99869.75
2023-03-24T23:37:03.569Z,99881.88
2023-03-24T23:39:34.052Z,99870.06
2023-03-24T23:42:01.963Z,99880.16
2023-03-24T23:44:29.884Z,99875.59
2023-03-24T23:46:57.806Z,99879.88
2023-03-24T23:49:25.952Z,99891.22
2023-03-24T23:51:53.862Z,99876.31
2023-03-24T23:54:21.779Z,99881.88
2023-03-24T23:56:51.338Z,99871.31
2023-03-24T23:59:19.306Z,99877.63
